createdAt,value
2018-07-14T00:00:53.038Z,21.30
2018-07-14T00:03:21.427Z,21.40
2018-07-14T00:05:49.700Z,21.30
2018-07-14T00:08:18.020Z,21.30
2018-07-14T00:10:46.292Z,21.30
2018-07-14T00:13:14.534Z,21.30
2018-07-14T00:15:42.818Z,21.10
2018-07-14T00:18:11.103Z,21.10
2018-07-14T00:20:39.358Z,21.00
2018-07-14T00:23:07.730Z,21.00
2018-07-14T00:25:41.327Z,21.00
2018-07-14T00:28:10.429Z,21.00
2018-07-14T00:30:38.724Z,21.10
2018-07-14T00:33:07.053Z,20.90
2018-07-14T00:35:35.321Z,20.80
2018-07-14T00:38:03.592Z,20.90
2018-07-14T00:40:31.863Z,20.80
2018-07-14T00:43:00.157Z,20.50
2018-07-14T00:45:29.035Z,20.40
2018-07-14T00:47:57.328Z,20.50
2018-07-14T00:50:25.548Z,20.60
2018-07-14T00:52:53.860Z,20.60
2018-07-14T00:55:22.171Z,20.60
2018-07-14T00:57:50.471Z,20.70
2018-07-14T01:00:19.020Z,20.70
2018-07-14T01:02:47.657Z,20.70
2018-07-14T01:05:16.828Z,20.60
2018-07-14T01:07:45.435Z,20.50
2018-07-14T01:10:14.027Z,20.50
2018-07-14T01:12:42.701Z,20.40
2018-07-14T01:17:39.637Z,20.30
2018-07-14T01:20:08.318Z,20.40
2018-07-14T01:22:43.366Z,20.40
2018-07-14T01:25:12.111Z,20.40
2018-07-14T01:27:40.997Z,20.40
2018-07-14T01:30:09.783Z,20.30
2018-07-14T01:32:38.397Z,20.20
2018-07-14T01:35:07.621Z,20.20
2018-07-14T01:37:36.432Z,20.20
2018-07-14T01:40:05.098Z,20.30
2018-07-14T01:47:30.267Z,20.10
2018-07-14T01:49:58.873Z,20.00
2018-07-14T01:52:28.412Z,19.90
2018-07-14T01:57:25.006Z,19.90
2018-07-14T01:59:54.031Z,19.80
2018-07-14T02:02:22.271Z,19.80
2018-07-14T02:09:46.544Z,19.80
2018-07-14T02:12:14.805Z,19.70
2018-07-14T02:14:43.065Z,19.70
2018-07-14T02:17:11.334Z,19.60
2018-07-14T02:19:39.562Z,19.60
2018-07-14T02:22:07.858Z,19.50
2018-07-14T02:24:36.155Z,19.40
2018-07-14T02:27:04.436Z,19.50
2018-07-14T02:29:32.726Z,19.50
2018-07-14T02:32:01.001Z,19.50
2018-07-14T02:34:29.237Z,19.50
2018-07-14T02:39:25.540Z,19.60
2018-07-14T02:41:53.861Z,19.50
2018-07-14T02:44:22.140Z,19.40
2018-07-14T02:46:50.451Z,19.50
2018-07-14T02:49:18.732Z,19.50
2018-07-14T02:51:47.030Z,19.60
2018-07-14T02:54:15.303Z,19.60
2018-07-14T02:56:43.557Z,19.50
2018-07-14T02:59:11.838Z,19.50
2018-07-14T03:01:40.213Z,19.60
2018-07-14T03:04:08.460Z,19.60
2018-07-14T03:06:36.739Z,19.50
2018-07-14T03:09:06.268Z,19.30
2018-07-14T03:11:34.542Z,19.20
2018-07-14T03:14:02.961Z,19.10
2018-07-14T03:16:31.211Z,19.20
2018-07-14T03:18:59.454Z,19.20
2018-07-14T03:21:27.724Z,19.30
2018-07-14T03:23:56.027Z,19.20
2018-07-14T03:26:25.124Z,19.10
2018-07-14T03:28:53.380Z,19.20
2018-07-14T03:31:21.576Z,19.20
2018-07-14T03:33:49.851Z,19.20
2018-07-14T03:36:18.136Z,19.00
2018-07-14T03:38:46.426Z,19.00
2018-07-14T03:41:14.636Z,19.00
2018-07-14T03:43:42.918Z,19.10
2018-07-14T03:48:39.179Z,19.10
2018-07-14T03:51:07.605Z,19.00
2018-07-14T03:53:35.955Z,19.00
2018-07-14T03:56:04.528Z,19.00
2018-07-14T03:58:32.864Z,19.10
2018-07-14T04:01:01.138Z,19.10
2018-07-14T04:03:29.471Z,19.10
2018-07-14T04:05:57.772Z,19.10
2018-07-14T04:08:26.637Z,19.10
2018-07-14T04:10:54.892Z,19.10
2018-07-14T04:13:23.168Z,19.10
2018-07-14T04:15:51.448Z,19.10
2018-07-14T04:18:19.845Z,19.10
2018-07-14T04:20:48.097Z,19.00
2018-07-14T04:23:16.419Z,18.90
2018-07-14T04:25:45.599Z,18.90
2018-07-14T04:28:13.826Z,18.80
2018-07-14T04:30:42.120Z,18.80
2018-07-14T04:33:10.393Z,18.70
2018-07-14T04:35:38.698Z,18.70
2018-07-14T04:38:07.184Z,18.70
2018-07-14T04:40:35.419Z,18.70
2018-07-14T04:43:03.668Z,18.70
2018-07-14T04:45:31.880Z,18.80
2018-07-14T04:48:00.147Z,18.80
2018-07-14T04:50:28.566Z,18.90
2018-07-14T04:52:56.811Z,18.90
2018-07-14T04:55:25.092Z,18.90
2018-07-14T04:57:53.371Z,18.80
2018-07-14T05:00:21.640Z,18.80
2018-07-14T05:02:49.867Z,18.80
2018-07-14T05:05:18.128Z,18.80
2018-07-14T05:07:46.412Z,18.80
2018-07-14T05:10:14.671Z,18.80
2018-07-14T05:12:42.960Z,18.80
2018-07-14T05:15:11.317Z,18.70
2018-07-14T05:17:39.538Z,18.90
2018-07-14T05:20:08.180Z,18.90
2018-07-14T05:22:36.485Z,18.90
2018-07-14T05:25:04.775Z,18.90
2018-07-14T05:27:33.007Z,19.00
2018-07-14T05:30:01.239Z,19.30
2018-07-14T05:32:29.480Z,19.30
2018-07-14T05:34:57.734Z,19.50
2018-07-14T05:37:26.008Z,19.60
2018-07-14T05:39:54.303Z,19.60
2018-07-14T05:42:22.567Z,19.70
2018-07-14T05:44:50.827Z,19.80
2018-07-14T05:47:19.131Z,19.90
2018-07-14T05:49:47.501Z,20.10
2018-07-14T05:52:15.788Z,20.30
2018-07-14T05:54:44.043Z,20.60
2018-07-14T05:57:12.341Z,20.50
2018-07-14T05:59:40.613Z,20.60
2018-07-14T06:02:08.893Z,20.60
2018-07-14T06:04:37.170Z,20.80
2018-07-14T06:07:06.199Z,20.70
2018-07-14T06:12:02.479Z,20.90
2018-07-14T06:14:30.743Z,20.90
2018-07-14T06:16:58.989Z,21.10
2018-07-14T06:19:27.409Z,21.20
2018-07-14T06:21:55.735Z,21.20
2018-07-14T06:24:24.044Z,21.20
2018-07-14T06:26:52.416Z,21.30
2018-07-14T06:29:20.704Z,21.50
2018-07-14T06:31:48.953Z,21.60
2018-07-14T06:34:17.246Z,21.80
2018-07-14T06:36:49.216Z,22.00
2018-07-14T06:39:17.565Z,22.10
2018-07-14T06:41:45.862Z,22.30
2018-07-14T06:46:42.132Z,22.60
2018-07-14T06:49:10.375Z,22.80
2018-07-14T06:51:38.713Z,23.10
2018-07-14T06:54:07.012Z,23.40
2018-07-14T06:56:35.281Z,23.60
2018-07-14T06:59:03.590Z,23.70
2018-07-14T07:03:59.897Z,24.50
2018-07-14T07:06:28.118Z,25.40
2018-07-14T07:08:56.438Z,25.90
2018-07-14T07:11:24.703Z,26.40
2018-07-14T07:13:53.018Z,26.80
2018-07-14T07:16:21.732Z,27.40
2018-07-14T07:18:50.149Z,27.90
2018-07-14T07:21:18.480Z,28.20
2018-07-14T07:23:47.007Z,28.20
2018-07-14T07:26:15.322Z,28.60
2018-07-14T07:28:43.605Z,29.20
2018-07-14T07:31:11.838Z,28.70
2018-07-14T07:33:40.104Z,28.50
2018-07-14T07:36:08.354Z,29.10
2018-07-14T07:38:37.228Z,29.80
2018-07-14T07:41:05.466Z,30.40
2018-07-14T07:43:33.734Z,30.40
2018-07-14T07:46:02.010Z,30.00
2018-07-14T07:48:30.296Z,30.10
2018-07-14T07:50:59.434Z,29.90
2018-07-14T07:53:27.699Z,30.20
2018-07-14T07:55:56.123Z,30.60
2018-07-14T07:58:24.436Z,30.80
2018-07-14T08:00:52.675Z,31.50
2018-07-14T08:03:20.980Z,32.20
2018-07-14T08:05:49.305Z,32.60
2018-07-14T08:08:17.583Z,32.50
2018-07-14T08:10:45.806Z,31.50
2018-07-14T08:13:14.067Z,30.80
2018-07-14T08:15:42.290Z,30.60
2018-07-14T08:20:38.602Z,32.00
2018-07-14T08:23:07.448Z,32.80
2018-07-14T08:25:35.670Z,33.80
2018-07-14T08:28:03.912Z,34.40
2018-07-14T08:30:32.338Z,34.10
2018-07-14T08:33:00.602Z,34.20
2018-07-14T08:35:28.843Z,34.10
2018-07-14T08:37:57.198Z,34.20
2018-07-14T08:40:25.403Z,34.40
2018-07-14T08:42:53.719Z,33.40
2018-07-14T08:45:21.975Z,34.20
2018-07-14T08:47:50.304Z,35.40
2018-07-14T08:52:46.602Z,35.00
2018-07-14T08:55:14.860Z,35.60
2018-07-14T08:57:43.135Z,35.00
2018-07-14T09:00:11.449Z,34.90
2018-07-14T09:02:39.849Z,34.60
2018-07-14T09:05:08.291Z,35.00
2018-07-14T09:07:36.822Z,34.90
2018-07-14T09:10:05.515Z,34.90
2018-07-14T09:12:36.729Z,35.60
2018-07-14T09:15:05.172Z,36.70
2018-07-14T09:17:33.592Z,36.90
2018-07-14T09:20:01.932Z,37.30
2018-07-14T09:22:30.365Z,37.80
2018-07-14T09:24:58.685Z,38.20
2018-07-14T09:27:27.117Z,37.90
2018-07-14T09:29:55.518Z,37.50
2018-07-14T09:32:23.823Z,37.00
2018-07-14T09:34:52.088Z,37.60
2018-07-14T09:37:20.370Z,38.20
2018-07-14T09:39:48.646Z,38.20
2018-07-14T09:42:16.928Z,38.70
2018-07-14T09:44:45.175Z,38.70
2018-07-14T09:47:14.083Z,38.80
2018-07-14T09:49:42.314Z,38.60
2018-07-14T09:52:11.107Z,38.30
2018-07-14T09:54:39.339Z,39.00
2018-07-14T09:57:07.908Z,38.60
2018-07-14T09:59:36.191Z,38.40
2018-07-14T10:02:04.556Z,38.60
2018-07-14T10:04:32.808Z,39.00
2018-07-14T10:07:01.117Z,37.70
2018-07-14T10:09:29.383Z,37.70
2018-07-14T10:11:57.732Z,38.10
2018-07-14T10:19:22.578Z,40.00
2018-07-14T10:21:51.120Z,40.30
2018-07-14T10:24:19.389Z,40.40
2018-07-14T10:26:47.669Z,40.70
2018-07-14T10:29:15.934Z,39.70
2018-07-14T10:31:44.233Z,40.00
2018-07-14T10:36:40.476Z,40.50
2018-07-14T10:39:09.331Z,40.80
2018-07-14T10:41:37.634Z,41.20
2018-07-14T10:44:05.916Z,41.30
2018-07-14T10:46:36.308Z,41.00
2018-07-14T10:49:04.547Z,40.80
2018-07-14T10:51:32.859Z,41.00
2018-07-14T10:54:01.717Z,40.50
2018-07-14T10:56:30.043Z,40.70
2018-07-14T10:58:58.817Z,41.90
2018-07-14T11:01:27.094Z,41.90
2018-07-14T11:03:55.346Z,41.30
2018-07-14T11:06:23.616Z,41.70
2018-07-14T11:08:52.068Z,40.10
2018-07-14T11:11:20.377Z,39.30
2018-07-14T11:13:50.029Z,39.50
2018-07-14T11:16:18.339Z,39.10
2018-07-14T11:21:14.600Z,41.20
2018-07-14T11:23:42.919Z,42.60
2018-07-14T11:26:11.227Z,43.50
2018-07-14T11:28:39.493Z,42.40
2018-07-14T11:31:07.758Z,40.40
2018-07-14T11:33:35.996Z,40.50
2018-07-14T11:36:04.406Z,40.90
2018-07-14T11:38:32.662Z,41.40
2018-07-14T11:41:00.948Z,41.60
2018-07-14T11:43:29.192Z,41.80
2018-07-14T11:45:57.502Z,42.60
2018-07-14T11:48:25.733Z,41.00
2018-07-14T11:50:54.079Z,40.50
2018-07-14T11:53:22.350Z,40.10
2018-07-14T11:55:50.584Z,39.60
2018-07-14T11:58:19.845Z,40.40
2018-07-14T12:00:48.307Z,41.60
2018-07-14T12:03:16.587Z,41.20
2018-07-14T12:05:44.900Z,40.20
2018-07-14T12:08:13.164Z,38.00
2018-07-14T12:10:41.513Z,37.20
2018-07-14T12:13:10.018Z,38.60
2018-07-14T12:15:38.323Z,39.40
2018-07-14T12:18:06.568Z,40.50
2018-07-14T12:23:02.946Z,38.80
2018-07-14T12:25:31.187Z,39.80
2018-07-14T12:27:59.615Z,39.80
2018-07-14T12:30:27.972Z,39.60
2018-07-14T12:32:56.287Z,40.60
2018-07-14T12:35:24.646Z,40.80
2018-07-14T12:37:52.922Z,41.80
2018-07-14T12:40:21.224Z,42.00
2018-07-14T12:42:49.540Z,39.60
2018-07-14T12:45:17.851Z,38.90
2018-07-14T12:47:46.175Z,37.90
2018-07-14T12:50:14.494Z,37.30
2018-07-14T12:52:42.771Z,38.10
2018-07-14T12:55:10.955Z,37.90
2018-07-14T12:57:39.227Z,37.80
2018-07-14T13:00:08.012Z,38.50
2018-07-14T13:02:36.247Z,39.80
2018-07-14T13:05:04.570Z,39.40
2018-07-14T13:07:39.385Z,38.80
2018-07-14T13:10:08.639Z,36.20
2018-07-14T13:12:37.289Z,35.80
2018-07-14T13:15:05.848Z,35.70
2018-07-14T13:17:34.116Z,35.70
2018-07-14T13:20:02.639Z,35.70
2018-07-14T13:22:31.129Z,34.70
2018-07-14T13:24:59.462Z,34.30
2018-07-14T13:27:27.800Z,34.80
2018-07-14T13:29:56.431Z,35.10
2018-07-14T13:32:24.938Z,35.20
2018-07-14T13:34:54.300Z,34.80
2018-07-14T13:37:23.162Z,35.00
2018-07-14T13:42:19.588Z,35.00
2018-07-14T13:44:47.856Z,34.30
2018-07-14T13:47:16.252Z,33.90
2018-07-14T13:49:44.863Z,33.50
2018-07-14T13:52:13.164Z,33.70
2018-07-14T13:54:41.487Z,33.30
2018-07-14T13:57:09.758Z,33.70
2018-07-14T13:59:40.018Z,34.10
2018-07-14T14:04:36.297Z,33.00
2018-07-14T14:07:04.712Z,32.70
2018-07-14T14:09:33.039Z,32.50
2018-07-14T14:12:01.316Z,33.10
2018-07-14T14:14:29.635Z,32.90
2018-07-14T14:16:59.264Z,32.80
2018-07-14T14:19:27.906Z,33.00
2018-07-14T14:21:56.224Z,33.20
2018-07-14T14:24:24.485Z,32.90
2018-07-14T14:29:21.362Z,32.80
2018-07-14T14:31:49.588Z,32.80
2018-07-14T14:34:18.084Z,33.00
2018-07-14T14:36:46.643Z,32.80
2018-07-14T14:39:15.923Z,32.50
2018-07-14T14:41:44.334Z,32.70
2018-07-14T14:44:12.696Z,32.40
2018-07-14T14:46:40.942Z,32.00
2018-07-14T14:49:09.279Z,31.90
2018-07-14T14:51:37.540Z,32.00
2018-07-14T14:54:05.771Z,32.00
2018-07-14T14:56:34.055Z,32.10
2018-07-14T14:59:02.291Z,32.20
2018-07-14T15:01:30.592Z,32.40
2018-07-14T15:03:58.881Z,32.20
2018-07-14T15:06:27.172Z,32.10
2018-07-14T15:08:56.451Z,32.30
2018-07-14T15:11:24.740Z,32.20
2018-07-14T15:16:21.014Z,32.00
2018-07-14T15:21:17.280Z,32.10
2018-07-14T15:23:45.520Z,31.90
2018-07-14T15:26:13.826Z,31.80
2018-07-14T15:31:10.396Z,32.00
2018-07-14T15:33:38.699Z,31.80
2018-07-14T15:36:07.045Z,32.00
2018-07-14T15:38:35.320Z,32.20
2018-07-14T15:41:03.603Z,32.20
2018-07-14T15:43:31.920Z,32.20
2018-07-14T15:46:00.240Z,32.20
2018-07-14T15:48:28.514Z,32.00
2018-07-14T15:50:56.785Z,32.00
2018-07-14T15:53:25.105Z,32.00
2018-07-14T15:55:53.379Z,31.80
2018-07-14T15:58:21.641Z,31.90
2018-07-14T16:00:49.868Z,31.90
2018-07-14T16:03:18.142Z,31.50
2018-07-14T16:05:46.755Z,31.60
2018-07-14T16:08:15.056Z,31.50
2018-07-14T16:10:43.363Z,31.40
2018-07-14T16:15:39.646Z,31.60
2018-07-14T16:18:08.426Z,31.60
2018-07-14T16:20:36.746Z,31.60
2018-07-14T16:23:05.866Z,31.30
2018-07-14T16:25:35.397Z,31.30
2018-07-14T16:28:04.403Z,31.40
2018-07-14T16:30:33.559Z,31.10
2018-07-14T16:33:01.931Z,31.30
2018-07-14T16:35:31.315Z,31.30
2018-07-14T16:37:59.708Z,31.30
2018-07-14T16:40:27.982Z,31.00
2018-07-14T16:42:58.276Z,30.70
2018-07-14T16:45:26.550Z,30.70
2018-07-14T16:47:54.819Z,30.70
2018-07-14T16:50:23.094Z,30.80
2018-07-14T16:52:51.443Z,30.70
2018-07-14T16:55:19.709Z,30.90
2018-07-14T16:57:48.118Z,31.00
2018-07-14T17:00:16.375Z,31.00
2018-07-14T17:02:44.670Z,31.10
2018-07-14T17:05:12.960Z,30.30
2018-07-14T17:07:41.324Z,30.10
2018-07-14T17:10:10.317Z,29.80
2018-07-14T17:12:38.576Z,30.00
2018-07-14T17:15:06.848Z,30.30
2018-07-14T17:17:35.144Z,30.10
2018-07-14T17:20:03.462Z,30.30
2018-07-14T17:22:31.725Z,30.30
2018-07-14T17:25:00.176Z,30.40
2018-07-14T17:27:28.419Z,30.30
2018-07-14T17:32:24.696Z,30.10
2018-07-14T17:34:52.943Z,30.10
2018-07-14T17:39:49.200Z,30.00
2018-07-14T17:42:17.504Z,29.80
2018-07-14T17:44:45.780Z,29.70
2018-07-14T17:47:14.021Z,29.50
2018-07-14T17:52:10.919Z,29.50
2018-07-14T17:54:39.508Z,29.40
2018-07-14T17:57:07.797Z,29.30
2018-07-14T17:59:36.249Z,29.20
2018-07-14T18:02:04.640Z,29.30
2018-07-14T18:04:32.944Z,29.20
2018-07-14T18:07:01.186Z,29.10
2018-07-14T18:09:29.456Z,29.00
2018-07-14T18:11:57.738Z,28.90
2018-07-14T18:14:26.003Z,29.00
2018-07-14T18:16:54.274Z,28.80
2018-07-14T18:19:22.556Z,28.90
2018-07-14T18:21:50.857Z,29.00
2018-07-14T18:24:19.100Z,28.90
2018-07-14T18:26:47.394Z,28.90
2018-07-14T18:29:16.380Z,28.90
2018-07-14T18:31:44.690Z,28.90
2018-07-14T18:34:12.944Z,28.80
2018-07-14T18:36:41.243Z,28.60
2018-07-14T18:39:09.628Z,28.40
2018-07-14T18:41:37.904Z,28.40
2018-07-14T18:44:06.204Z,28.30
2018-07-14T18:46:34.439Z,28.40
2018-07-14T18:49:02.738Z,28.40
2018-07-14T18:51:30.976Z,28.50
2018-07-14T18:53:59.380Z,28.30
2018-07-14T18:56:27.684Z,28.30
2018-07-14T19:01:24.855Z,28.30
2018-07-14T19:06:21.429Z,28.10
2018-07-14T19:08:49.733Z,28.10
2018-07-14T19:11:18.118Z,28.10
2018-07-14T19:13:46.507Z,28.10
2018-07-14T19:16:14.747Z,28.00
2018-07-14T19:18:43.039Z,27.80
2018-07-14T19:21:11.681Z,27.60
2018-07-14T19:23:40.954Z,27.60
2018-07-14T19:26:09.663Z,27.70
2018-07-14T19:28:37.837Z,27.60
2018-07-14T19:31:06.101Z,27.50
2018-07-14T19:33:34.677Z,27.50
2018-07-14T19:36:03.006Z,27.50
2018-07-14T19:38:31.235Z,27.30
2018-07-14T19:40:59.542Z,27.30
2018-07-14T19:43:27.757Z,27.20
2018-07-14T19:45:55.993Z,27.20
2018-07-14T19:48:24.222Z,27.20
2018-07-14T19:50:52.979Z,27.00
2018-07-14T19:53:21.518Z,27.00
2018-07-14T19:58:18.057Z,26.90
2018-07-14T20:00:46.634Z,26.80
2018-07-14T20:03:15.489Z,26.70
2018-07-14T20:05:44.127Z,26.40
2018-07-14T20:10:40.414Z,26.20
2018-07-14T20:13:08.772Z,26.20
2018-07-14T20:15:36.967Z,26.20
2018-07-14T20:18:06.303Z,26.20
2018-07-14T20:20:34.583Z,26.20
2018-07-14T20:23:02.839Z,26.10
2018-07-14T20:25:31.455Z,26.00
2018-07-14T20:27:59.751Z,26.10
2018-07-14T20:30:28.062Z,25.90
2018-07-14T20:32:56.430Z,25.90
2018-07-14T20:35:24.743Z,25.80
2018-07-14T20:37:53.592Z,25.80
2018-07-14T20:40:21.824Z,25.60
2018-07-14T20:42:50.051Z,25.30
2018-07-14T20:45:18.419Z,25.10
2018-07-14T20:47:46.701Z,25.10
2018-07-14T20:50:14.987Z,25.10
2018-07-14T20:52:43.231Z,25.20
2018-07-14T20:55:11.561Z,25.10
2018-07-14T20:57:39.820Z,25.10
2018-07-14T21:00:08.058Z,25.10
2018-07-14T21:02:36.326Z,25.10
2018-07-14T21:07:32.571Z,25.00
2018-07-14T21:12:28.890Z,24.90
2018-07-14T21:14:57.180Z,24.90
2018-07-14T21:17:26.427Z,24.90
2018-07-14T21:19:55.172Z,24.80
2018-07-14T21:22:23.455Z,24.70
2018-07-14T21:27:19.724Z,24.30
2018-07-14T21:29:48.002Z,24.30
2018-07-14T21:32:16.315Z,24.30
2018-07-14T21:34:44.561Z,24.30
2018-07-14T21:37:12.874Z,24.40
2018-07-14T21:39:41.163Z,24.30
2018-07-14T21:42:09.416Z,24.40
2018-07-14T21:44:37.707Z,24.30
2018-07-14T21:47:05.977Z,24.20
2018-07-14T21:49:34.259Z,24.10
2018-07-14T21:52:09.215Z,24.10
2018-07-14T21:57:05.563Z,24.20
2018-07-14T21:59:33.907Z,24.10
2018-07-14T22:02:06.157Z,24.10
2018-07-14T22:04:35.346Z,24.10
2018-07-14T22:07:03.651Z,24.10
2018-07-14T22:09:32.131Z,24.00
2018-07-14T22:12:00.478Z,24.00
2018-07-14T22:14:28.691Z,23.90
2018-07-14T22:16:56.961Z,23.90
2018-07-14T22:19:25.267Z,23.80
2018-07-14T22:21:53.531Z,23.80
2018-07-14T22:26:50.029Z,23.70
2018-07-14T22:29:18.338Z,23.60
2018-07-14T22:31:46.564Z,23.40
2018-07-14T22:34:15.028Z,23.40
2018-07-14T22:36:43.366Z,23.40
2018-07-14T22:39:11.593Z,23.20
2018-07-14T22:41:43.832Z,23.10
2018-07-14T22:44:12.102Z,23.00
2018-07-14T22:46:40.951Z,22.90
2018-07-14T22:49:09.222Z,22.80
2018-07-14T22:51:37.473Z,22.70
2018-07-14T22:54:05.780Z,22.70
2018-07-14T22:56:34.000Z,22.70
2018-07-14T22:59:02.230Z,22.60
2018-07-14T23:01:30.488Z,22.50
2018-07-14T23:03:58.779Z,22.40
2018-07-14T23:06:27.032Z,22.40
2018-07-14T23:08:55.238Z,22.40
2018-07-14T23:11:23.462Z,22.40
2018-07-14T23:13:51.864Z,22.30
2018-07-14T23:16:20.116Z,22.20
2018-07-14T23:18:48.473Z,22.20
2018-07-14T23:21:16.743Z,22.10
2018-07-14T23:23:45.073Z,22.20
2018-07-14T23:26:13.375Z,22.10
2018-07-14T23:28:41.645Z,21.80
2018-07-14T23:31:09.918Z,21.80
2018-07-14T23:33:38.190Z,21.70
2018-07-14T23:36:06.772Z,21.80
2018-07-14T23:38:35.182Z,21.80
2018-07-14T23:41:03.547Z,21.80
2018-07-14T23:43:31.789Z,21.80
2018-07-14T23:46:00.074Z,21.80
2018-07-14T23:48:28.342Z,21.70
2018-07-14T23:50:56.595Z,21.70
2018-07-14T23:53:24.854Z,21.60
2018-07-14T23:55:53.193Z,21.60
2018-07-14T23:58:21.462Z,21.40
